Time;durP1;ratioP1;P1;durP2;ratioP2;P2;SDS_P1;SDS_P2;PMS_P1;PMS_P2;Temp;Humidity;BMP_temperature;BMP_pressure;BME280_temperature;BME280_humidity;BME280_pressure;Samples;Min_cycle;Max_cycle;Signal;HPM_P1;HPM_P2
2022/01/16 00:00:18;;;;;;;13.10;5.88;;;;;;;1.16;95.22;100971.88;4897510;29;20336;-74
2022/01/16 00:05:25;;;;;;;16.42;5.47;;;;;;;1.17;95.67;100941.69;4897612;29;20461;-74
2022/01/16 00:07:52;;;;;;;15.27;6.28;;;;;;;1.23;95.38;100962.41;4897444;29;20061;-74
2022/01/16 00:10:18;;;;;;;19.33;6.80;;;;;;;1.18;95.04;100967.28;4897593;29;20060;-74
2022/01/16 00:12:48;;;;;;;16.30;5.72;;;;;;;1.18;95.22;100965.47;4900129;29;20033;-74
2022/01/16 00:15:15;;;;;;;14.50;5.78;;;;;;;1.19;95.58;100961.00;4900521;29;20424;-74
2022/01/16 00:17:52;;;;;;;21.00;4.90;;;;;;;1.20;95.23;100942.28;4900487;29;20428;-74
2022/01/16 00:20:17;;;;;;;14.57;5.50;;;;;;;1.25;95.14;100942.75;4900823;29;20036;-74
2022/01/16 00:22:44;;;;;;;20.52;6.43;;;;;;;1.22;95.14;100950.13;4900479;29;20116;-74
2022/01/16 00:25:10;;;;;;;17.42;6.00;;;;;;;1.20;95.37;100952.06;4900657;29;20032;-74
2022/01/16 00:27:35;;;;;;;16.83;6.63;;;;;;;1.17;95.29;100945.19;4900428;29;20093;-74
2022/01/16 00:30:01;;;;;;;19.80;6.88;;;;;;;1.18;95.29;100927.47;4900339;29;20123;-74
2022/01/16 00:32:26;;;;;;;17.00;5.57;;;;;;;1.14;95.48;100918.91;4900386;29;20468;-74
2022/01/16 00:34:51;;;;;;;15.57;5.45;;;;;;;1.14;95.02;100926.03;4900855;29;20032;-74
2022/01/16 00:37:17;;;;;;;20.50;6.87;;;;;;;1.11;95.18;100919.16;4900218;29;20384;-74
2022/01/16 00:39:42;;;;;;;15.52;6.00;;;;;;;1.09;95.51;100931.72;4900465;29;20760;-74
2022/01/16 00:42:07;;;;;;;17.00;5.50;;;;;;;1.09;94.94;100942.34;4900453;29;20044;-74
2022/01/16 00:44:33;;;;;;;16.35;5.70;;;;;;;1.06;95.16;100950.59;4900380;29;20261;-74
2022/01/16 00:46:58;;;;;;;17.47;6.03;;;;;;;1.06;95.33;100939.97;4900197;29;20143;-74
2022/01/16 00:49:23;;;;;;;17.00;5.90;;;;;;;1.11;95.25;100934.25;4900198;29;20751;-74
2022/01/16 00:51:49;;;;;;;16.73;6.23;;;;;;;1.11;95.01;100948.38;4900271;29;20661;-74
2022/01/16 00:54:14;;;;;;;15.80;6.03;;;;;;;1.09;95.13;100946.81;4900326;29;20253;-74
2022/01/16 00:56:39;;;;;;;17.97;7.17;;;;;;;1.09;94.83;100942.34;4900101;29;20120;-74
2022/01/16 00:59:05;;;;;;;20.97;6.90;;;;;;;1.07;95.04;100946.13;4900080;29;20285;-74
2022/01/16 01:01:31;;;;;;;17.42;5.78;;;;;;;1.04;94.98;100929.50;4900007;29;20361;-74
2022/01/16 01:03:57;;;;;;;19.13;6.03;;;;;;;0.92;94.54;100913.75;4900175;29;20115;-74
2022/01/16 01:06:23;;;;;;;17.33;6.55;;;;;;;0.87;94.69;100916.81;4899647;29;20486;-74
2022/01/16 01:08:48;;;;;;;18.77;6.25;;;;;;;0.84;94.83;100948.06;4883081;29;20048;-73
2022/01/16 01:11:17;;;;;;;17.90;5.82;;;;;;;0.80;95.37;100958.09;4899880;29;20059;-74
2022/01/16 01:16:49;;;;;;;17.35;6.10;;;;;;;0.85;95.37;100963.03;4899786;29;20413;-74
2022/01/16 01:19:14;;;;;;;17.20;5.82;;;;;;;0.85;95.42;100994.84;4899645;29;20039;-74
2022/01/16 01:21:39;;;;;;;15.85;5.00;;;;;;;0.81;95.48;100967.72;4899684;29;20036;-74
2022/01/16 01:24:05;;;;;;;15.97;6.63;;;;;;;0.80;95.14;100981.13;4899567;29;20040;-74
2022/01/16 01:26:36;;;;;;;17.77;5.93;;;;;;;0.75;95.67;100989.47;4899521;29;20291;-74
2022/01/16 01:29:02;;;;;;;17.75;7.22;;;;;;;0.78;95.60;100998.97;4899363;29;20475;-74
2022/01/16 01:31:29;;;;;;;21.30;6.47;;;;;;;0.81;95.46;100988.97;4899537;29;20028;-74
2022/01/16 01:33:55;;;;;;;22.00;8.40;;;;;;;0.81;95.50;101002.22;4899652;29;20059;-74
2022/01/16 01:36:20;;;;;;;22.02;7.32;;;;;;;0.83;95.50;100946.38;4899479;29;20469;-74
2022/01/16 01:38:45;;;;;;;22.95;7.25;;;;;;;0.82;95.82;100915.53;4899392;29;20503;-74
2022/01/16 01:41:11;;;;;;;16.63;6.93;;;;;;;0.82;95.50;100915.53;4882476;29;20143;-74
2022/01/16 01:51:36;;;;;;;19.88;7.68;;;;;;;0.74;95.49;100941.84;4899162;29;20035;-74
2022/01/16 01:54:04;;;;;;;20.45;6.82;;;;;;;0.77;95.72;100954.84;4899166;29;20033;-74
2022/01/16 01:56:30;;;;;;;30.95;10.18;;;;;;;0.79;95.57;100958.22;4899054;29;20120;-74
2022/01/16 01:58:58;;;;;;;26.17;7.82;;;;;;;0.84;95.43;100980.75;4899633;29;20049;-74
2022/01/16 02:01:25;;;;;;;27.38;8.18;;;;;;;0.82;94.96;100972.06;4899176;29;20041;-74
2022/01/16 02:03:51;;;;;;;22.25;8.43;;;;;;;0.87;95.25;100985.81;4882094;29;20432;-74
2022/01/16 02:06:21;;;;;;;25.23;7.43;;;;;;;0.92;95.57;100977.44;4898806;29;20067;-74
2022/01/16 02:08:53;;;;;;;24.38;8.13;;;;;;;0.86;94.97;100991.22;4898522;29;20132;-74
2022/01/16 02:11:23;;;;;;;23.45;8.43;;;;;;;0.87;95.39;100977.84;4898548;29;20035;-74
2022/01/16 02:13:56;;;;;;;24.35;9.35;;;;;;;0.84;94.86;100974.59;4898753;29;20108;-74
2022/01/16 02:35:03;;;;;;;21.05;8.73;;;;;;;0.98;94.42;100984.88;4897967;29;20337;-74
2022/01/16 02:37:28;;;;;;;24.60;7.72;;;;;;;1.01;94.69;100980.16;4898602;29;20453;-74
2022/01/16 02:40:00;;;;;;;23.80;10.13;;;;;;;1.02;94.40;100978.34;4898260;29;20455;-74
2022/01/16 02:42:28;;;;;;;28.27;9.20;;;;;;;1.06;94.54;100970.97;4898317;29;20029;-74
2022/01/16 02:45:02;;;;;;;30.17;10.50;;;;;;;1.07;94.42;100972.66;4898590;29;20040;-74
2022/01/16 02:47:27;;;;;;;32.03;10.75;;;;;;;1.15;94.04;100975.50;4898283;29;20036;-74
2022/01/16 02:49:53;;;;;;;25.40;9.63;;;;;;;1.16;94.05;100955.94;4897831;29;20113;-74
2022/01/16 02:52:21;;;;;;;29.10;9.50;;;;;;;1.14;93.76;100949.91;4898165;29;20036;-74
2022/01/16 02:54:49;;;;;;;34.35;10.77;;;;;;;1.14;94.02;100953.41;4898159;29;20032;-74
2022/01/16 02:57:18;;;;;;;34.95;11.85;;;;;;;1.15;93.78;100943.63;4897989;29;20039;-74
2022/01/16 02:59:49;;;;;;;35.70;11.15;;;;;;;1.14;93.87;100932.19;4897826;29;20040;-74
2022/01/16 03:02:16;;;;;;;34.22;11.02;;;;;;;1.16;93.57;100913.47;4898177;29;20029;-74
2022/01/16 03:04:42;;;;;;;28.35;10.75;;;;;;;1.16;93.47;100909.00;4897942;29;20029;-74
2022/01/16 03:07:07;;;;;;;29.15;10.38;;;;;;;1.19;93.04;100905.25;4881144;29;20495;-74
2022/01/16 03:09:56;;;;;;;28.25;10.90;;;;;;;1.20;93.14;100905.13;4898029;29;20045;-74
2022/01/16 03:12:19;;;;;;;28.05;11.48;;;;;;;1.21;93.48;100900.66;4897521;29;20044;-74
2022/01/16 03:14:44;;;;;;;33.25;11.60;;;;;;;1.24;93.51;100897.75;4898165;29;20029;-74
2022/01/16 03:17:11;;;;;;;32.05;11.30;;;;;;;1.24;92.85;100903.03;4897952;29;20060;-74
2022/01/16 03:22:21;;;;;;;34.90;12.32;;;;;;;1.27;92.91;100906.25;4897850;29;20129;-74
2022/01/16 03:24:46;;;;;;;31.08;11.50;;;;;;;1.28;92.69;100907.94;4898180;29;20111;-74
2022/01/16 03:27:17;;;;;;;38.30;11.98;;;;;;;1.26;92.85;100906.38;4897881;29;20408;-74
2022/01/16 03:29:57;;;;;;;34.50;11.65;;;;;;;1.28;93.01;100918.56;4898021;29;20111;-74
2022/01/16 03:32:23;;;;;;;36.70;12.63;;;;;;;1.27;92.49;100886.81;4897588;29;20387;-74
2022/01/16 03:34:50;;;;;;;39.38;11.45;;;;;;;1.26;92.68;100878.03;4897728;29;20033;-74
2022/01/16 03:37:15;;;;;;;36.85;11.50;;;;;;;1.24;92.76;100884.47;4897473;29;20036;-74
2022/01/16 03:39:41;;;;;;;36.70;12.35;;;;;;;1.28;92.47;100888.50;4897415;29;20040;-74
2022/01/16 03:42:07;;;;;;;44.45;14.43;;;;;;;1.24;92.28;100884.47;4897590;29;20040;-74
2022/01/16 03:44:32;;;;;;;33.63;12.45;;;;;;;1.21;92.50;100887.38;4897490;29;20396;-74
2022/01/16 03:46:59;;;;;;;35.40;12.80;;;;;;;1.21;92.70;100882.06;4899362;29;20044;-74
2022/01/16 03:49:26;;;;;;;;;;;;;;;1.25;92.75;100891.47;4901711;29;20123;-74
2022/01/16 03:51:53;;;;;;;33.90;11.68;;;;;;;1.24;92.72;100898.59;4900840;29;20001;-74
2022/01/16 03:54:24;;;;;;;33.72;12.18;;;;;;;1.25;92.31;100897.59;4901225;29;20044;-74
2022/01/16 03:56:50;;;;;;;37.67;11.00;;;;;;;1.24;92.76;100909.19;4883938;29;20409;-74
2022/01/16 03:59:18;;;;;;;36.83;13.60;;;;;;;1.24;92.39;100900.41;4900835;29;20032;-74
2022/01/16 04:01:43;;;;;;;33.28;12.65;;;;;;;1.26;92.45;100903.72;4884214;29;20051;-74
2022/01/16 04:04:08;;;;;;;32.20;11.77;;;;;;;1.23;92.66;100910.16;4901018;29;20029;-74
2022/01/16 04:06:34;;;;;;;32.17;12.82;;;;;;;1.20;92.89;100905.13;4900732;29;20091;-74
2022/01/16 04:09:01;;;;;;;41.95;12.65;;;;;;;1.20;92.42;100907.78;4883752;29;20385;-74
2022/01/16 04:11:28;;;;;;;39.92;13.23;;;;;;;1.18;92.56;100911.53;4900672;29;20365;-74
2022/01/16 04:14:05;;;;;;;36.40;13.85;;;;;;;1.19;92.76;100908.75;4883733;29;20035;-74
2022/01/16 04:16:31;;;;;;;34.42;12.98;;;;;;;1.19;92.57;100908.75;4900551;29;20064;-74
2022/01/16 04:18:57;;;;;;;34.13;12.52;;;;;;;1.22;92.92;100918.25;4900819;29;20071;-74
2022/01/16 04:21:24;;;;;;;36.67;11.93;;;;;;;1.19;92.74;100915.88;4900624;29;20472;-74
2022/01/16 04:23:51;;;;;;;36.72;13.35;;;;;;;1.17;92.74;100921.31;4900785;29;20032;-74
2022/01/16 04:26:18;;;;;;;37.10;12.73;;;;;;;1.27;92.85;100932.78;4900711;29;20080;-74
2022/01/16 04:28:46;;;;;;;43.67;14.20;;;;;;;1.23;92.58;100939.38;4900661;29;20459;-74
2022/01/16 04:31:11;;;;;;;42.28;12.63;;;;;;;1.20;92.67;100949.41;4900389;29;20036;-74
2022/01/16 04:33:37;;;;;;;35.13;13.30;;;;;;;1.20;92.89;100931.66;4900543;29;20056;-74
2022/01/16 04:36:02;;;;;;;39.58;13.90;;;;;;;1.18;92.54;100912.38;4900777;29;20068;-74
2022/01/16 04:38:28;;;;;;;36.35;12.98;;;;;;;1.18;92.63;100919.50;4900189;29;20393;-74
2022/01/16 04:43:53;;;;;;;33.20;14.13;;;;;;;1.05;92.29;100930.34;4900427;29;20043;-74
2022/01/16 04:46:27;;;;;;;34.05;12.50;;;;;;;1.07;92.53;100935.50;4899987;29;20044;-74
2022/01/16 04:48:53;;;;;;;43.78;13.25;;;;;;;1.04;92.35;100934.81;4900296;29;20465;-74
2022/01/16 04:51:20;;;;;;;35.10;12.27;;;;;;;0.99;92.51;100936.16;4900322;29;20032;-75
2022/01/16 04:53:45;;;;;;;37.33;13.73;;;;;;;0.97;92.65;100938.94;4900190;29;20120;-74
2022/01/16 04:56:11;;;;;;;31.42;12.07;;;;;;;0.97;93.04;100936.28;4900222;29;20460;-75
2022/01/16 04:58:38;;;;;;;35.25;12.68;;;;;;;0.98;93.08;100937.13;4882862;29;20041;-74
2022/01/16 05:01:04;;;;;;;35.65;12.07;;;;;;;0.97;93.27;100936.28;4899783;29;20388;-74
2022/01/16 05:03:30;;;;;;;;;;;;;;;0.96;93.36;100941.72;4900474;29;20036;-74
2022/01/16 05:05:56;;;;;;;31.98;13.30;;;;;;;0.95;93.21;100927.59;4900229;29;19912;-77
2022/01/16 05:08:22;;;;;;;38.80;14.02;;;;;;;0.97;93.63;100928.31;4900273;29;20143;-75
2022/01/16 05:10:48;;;;;;;43.75;14.30;;;;;;;0.96;93.08;100913.38;4899918;29;20392;-75
2022/01/16 05:18:38;;;;;;;44.97;15.30;;;;;;;1.06;93.41;100907.28;4899504;29;20060;-75
2022/01/16 05:21:04;;;;;;;42.50;15.13;;;;;;;1.06;93.61;100909.94;4899562;29;20124;-74
2022/01/16 05:23:29;;;;;;;42.28;14.60;;;;;;;1.09;93.71;100907.84;4882550;29;20024;-74
2022/01/16 05:25:55;;;;;;;46.00;16.13;;;;;;;1.11;93.49;100915.69;4899697;29;20391;-75
2022/01/16 05:28:21;;;;;;;38.60;14.68;;;;;;;1.12;93.38;100909.41;4899395;29;20036;-75
2022/01/16 05:30:47;;;;;;;49.13;15.32;;;;;;;1.15;93.28;100912.63;4899360;29;20037;-75
2022/01/16 05:33:12;;;;;;;44.10;15.18;;;;;;;1.15;93.30;100922.41;4899679;29;20048;-74
2022/01/16 05:35:37;;;;;;;43.78;14.10;;;;;;;1.18;93.64;100925.66;4899495;29;20043;-74
2022/01/16 05:38:03;;;;;;;38.13;13.90;;;;;;;1.21;93.44;100921.88;4899310;29;20028;-74
2022/01/16 05:40:28;;;;;;;44.08;13.23;;;;;;;1.23;93.04;100918.13;4899839;29;20472;-74
2022/01/16 05:42:55;;;;;;;48.47;15.18;;;;;;;1.26;93.06;100909.88;4899319;29;20032;-74
2022/01/16 05:45:21;;;;;;;65.20;17.45;;;;;;;1.29;93.34;100914.94;4899343;29;20044;-75
2022/01/16 05:47:46;;;;;;;46.75;15.18;;;;;;;1.32;92.81;100921.78;4882533;29;20025;-74
2022/01/16 05:50:13;;;;;;;42.77;16.20;;;;;;;1.32;92.87;100927.09;4899376;29;20068;-74
2022/01/16 05:52:39;;;;;;;51.78;17.00;;;;;;;1.34;92.83;100923.34;4898977;29;20733;-74
2022/01/16 05:55:05;;;;;;;56.00;17.50;;;;;;;1.35;92.97;100919.72;4899450;29;20119;-74
2022/01/16 05:57:31;;;;;;;54.13;16.70;;;;;;;1.37;92.82;100917.78;4899121;29;20116;-74
2022/01/16 05:59:56;;;;;;;51.85;15.70;;;;;;;1.39;92.51;100907.84;4898944;29;20108;-74
2022/01/16 06:02:21;;;;;;;41.22;15.13;;;;;;;1.39;92.35;100913.16;4898743;29;20084;-74
2022/01/16 06:04:47;;;;;;;43.30;15.63;;;;;;;1.40;92.56;100906.03;4898886;29;20029;-75
2022/01/16 06:07:12;;;;;;;37.65;16.60;;;;;;;1.44;92.44;100906.59;4898740;29;20515;-74
2022/01/16 06:09:38;;;;;;;40.40;15.93;;;;;;;1.47;92.44;100899.19;4898088;29;20045;-73
2022/01/16 06:12:04;;;;;;;48.55;15.55;;;;;;;1.48;92.13;100900.03;4899035;29;20276;-74
2022/01/16 06:14:30;;;;;;;47.75;16.20;;;;;;;1.51;91.81;100902.44;4882158;29;20361;-76
2022/01/16 06:16:55;;;;;;;44.05;16.23;;;;;;;1.52;92.17;100910.28;4898809;29;20048;-77
2022/01/16 06:19:21;;;;;;;51.13;17.02;;;;;;;1.52;91.96;100909.44;4882112;29;20089;-77
2022/01/16 06:21:47;;;;;;;40.88;14.80;;;;;;;1.53;92.06;100892.53;4898856;29;20048;-77
2022/01/16 06:24:13;;;;;;;46.80;16.13;;;;;;;1.55;91.83;100904.69;4881934;29;20040;-74
2022/01/16 06:26:38;;;;;;;46.17;17.10;;;;;;;1.57;91.76;100908.06;4898530;29;20102;-74
2022/01/16 06:29:04;;;;;;;49.53;15.85;;;;;;;1.59;91.37;100898.16;4898527;29;20041;-75
2022/01/16 06:31:29;;;;;;;47.65;16.65;;;;;;;1.59;91.67;100897.31;4881820;29;20081;-73
2022/01/16 06:33:55;;;;;;;39.30;13.95;;;;;;;1.59;91.23;100907.94;4898275;29;20071;-74
2022/01/16 06:36:20;;;;;;;44.28;15.48;;;;;;;1.62;91.32;100919.09;4881569;29;20039;-75
2022/01/16 06:38:46;;;;;;;42.30;15.07;;;;;;;1.64;91.41;100906.53;4898349;29;20040;-75
2022/01/16 06:41:12;;;;;;;45.25;17.20;;;;;;;1.64;91.11;100908.34;4898492;29;20036;-75
2022/01/16 06:43:37;;;;;;;47.65;15.70;;;;;;;1.62;91.53;100911.13;4898028;29;20032;-75
2022/01/16 06:46:03;;;;;;;46.03;15.55;;;;;;;1.68;91.24;100907.09;4898306;29;20036;-75
2022/01/16 06:48:28;;;;;;;45.72;17.25;;;;;;;1.66;91.57;100912.53;4881418;29;20180;-75
2022/01/16 06:50:54;;;;;;;45.42;16.17;;;;;;;1.68;91.62;100907.09;4898103;29;20400;-75
2022/01/16 06:53:20;;;;;;;41.10;14.20;;;;;;;1.66;91.14;100917.00;4897870;29;20036;-75
2022/01/16 06:55:45;;;;;;;43.75;14.85;;;;;;;1.66;91.02;100923.16;4897753;29;20112;-74
2022/01/16 06:58:10;;;;;;;50.65;15.82;;;;;;;1.69;90.90;100938.00;4898415;29;20036;-74
2022/01/16 07:00:36;;;;;;;35.03;12.95;;;;;;;1.72;91.17;100930.59;4897927;29;20043;-75
2022/01/16 07:03:01;;;;;;;42.15;14.98;;;;;;;1.76;90.84;100933.00;4898014;29;20119;-75
2022/01/16 07:05:27;;;;;;;48.38;15.95;;;;;;;1.76;90.86;100933.00;4897996;29;20483;-74
2022/01/16 07:07:53;;;;;;;41.83;16.53;;;;;;;1.77;90.84;100935.53;4897947;29;20084;-75
2022/01/16 07:10:20;;;;;;;42.72;16.83;;;;;;;1.79;90.80;100930.06;4898006;29;20301;-74
2022/01/16 07:12:45;;;;;;;39.88;16.17;;;;;;;1.81;90.48;100936.06;4898285;29;20041;-75
2022/01/16 07:15:11;;;;;;;37.22;14.73;;;;;;;1.81;90.55;100939.56;4881180;29;20036;-75
2022/01/16 07:17:37;;;;;;;44.15;15.05;;;;;;;1.87;90.51;100941.69;4898091;29;20070;-76
2022/01/16 07:20:03;;;;;;;44.15;16.30;;;;;;;1.89;90.39;100949.53;4898250;29;20033;-76
2022/01/16 07:22:28;;;;;;;57.88;17.95;;;;;;;1.88;90.02;100947.84;4901646;29;20457;-76
2022/01/16 07:24:54;;;;;;;44.67;15.70;;;;;;;1.87;90.15;100948.81;4901639;29;20400;-76
2022/01/16 07:27:19;;;;;;;34.10;15.65;;;;;;;1.87;90.48;100962.09;4901986;29;20480;-76
2022/01/16 07:29:45;;;;;;;45.20;17.08;;;;;;;1.87;90.38;100957.63;4901812;29;20092;-76
2022/01/16 07:32:10;;;;;;;37.58;16.70;;;;;;;1.87;90.37;100962.09;4902545;29;20070;-78
2022/01/16 07:34:36;;;;;;;48.72;15.73;;;;;;;1.92;90.48;100955.41;4902839;29;20033;-77
2022/01/16 07:37:01;;;;;;;42.17;15.00;;;;;;;1.95;90.73;100955.16;4903930;29;20029;-77
2022/01/16 07:39:26;;;;;;;43.80;14.55;;;;;;;1.95;90.26;100959.63;4902513;29;20036;-77
2022/01/16 07:41:52;;;;;;;43.97;15.85;;;;;;;1.93;90.18;100966.88;4903844;29;20032;-78
2022/01/16 07:44:17;;;;;;;38.20;15.05;;;;;;;1.92;90.01;100978.50;4886645;29;20124;-77
2022/01/16 07:46:43;;;;;;;35.97;13.63;;;;;;;1.90;90.15;100972.47;4887537;29;20036;-77
2022/01/16 07:49:08;;;;;;;35.60;14.77;;;;;;;1.89;90.65;100968.13;4906307;29;20043;-77
2022/01/16 07:51:34;;;;;;;44.53;14.05;;;;;;;1.90;90.25;100978.63;4890705;29;20032;-77
2022/01/16 07:53:59;;;;;;;43.60;16.00;;;;;;;1.90;90.64;100983.09;4907668;29;20033;-78
2022/01/16 07:56:25;;;;;;;37.65;15.75;;;;;;;1.94;90.59;100976.53;4907908;29;20028;-77
2022/01/16 07:58:50;;;;;;;38.93;15.77;;;;;;;1.98;90.08;100976.09;4906962;29;20040;-77
2022/01/16 08:01:16;;;;;;;44.88;16.80;;;;;;;2.02;90.29;100987.31;4907716;29;20277;-78
2022/01/16 08:03:41;;;;;;;36.50;15.85;;;;;;;2.07;90.25;100995.72;4907434;29;20032;-77
2022/01/16 08:06:06;;;;;;;36.57;16.53;;;;;;;2.07;90.62;100995.72;4905747;29;20491;-77
2022/01/16 08:08:32;;;;;;;37.25;15.18;;;;;;;2.13;90.38;100992.53;4901749;29;20307;-77
2022/01/16 08:10:57;;;;;;;44.58;17.30;;;;;;;2.15;89.94;100998.53;4902282;29;20411;-77
2022/01/16 08:13:23;;;;;;;43.30;16.80;;;;;;;2.16;89.87;100986.94;4901711;29;20056;-76
2022/01/16 08:15:48;;;;;;;40.65;15.52;;;;;;;2.16;89.89;100992.25;4901692;29;20476;-75
2022/01/16 08:18:13;;;;;;;38.95;15.57;;;;;;;2.17;89.88;101001.06;4901524;29;20627;-77
2022/01/16 08:20:39;;;;;;;44.03;15.63;;;;;;;2.21;90.15;100998.00;4901709;29;20491;-77
2022/01/16 08:23:04;;;;;;;42.20;14.95;;;;;;;2.22;89.88;100996.19;4901625;29;20033;-77
2022/01/16 08:25:30;;;;;;;45.70;15.48;;;;;;;2.32;90.63;100994.41;4901467;29;20499;-77
2022/01/16 08:27:55;;;;;;;47.22;16.98;;;;;;;2.35;89.70;100989.63;4901049;29;20035;-77
2022/01/16 08:30:21;;;;;;;45.75;15.73;;;;;;;2.34;89.63;100992.41;4901170;29;20028;-77
2022/01/16 08:32:46;;;;;;;36.83;15.85;;;;;;;2.36;89.67;100999.28;4900463;29;20041;-77
2022/01/16 08:35:12;;;;;;;40.50;15.30;;;;;;;2.33;89.82;100996.88;4884394;29;20392;-78
2022/01/16 08:37:38;;;;;;;43.47;15.38;;;;;;;2.34;89.86;101001.22;4900756;29;20119;-77
2022/01/16 08:40:05;;;;;;;43.40;15.32;;;;;;;2.29;90.09;101002.66;4901075;29;20032;-77
2022/01/16 08:42:31;;;;;;;44.17;17.42;;;;;;;2.30;90.28;101002.50;4901119;29;20581;-77
2022/01/16 08:44:56;;;;;;;45.80;16.80;;;;;;;2.32;90.13;101008.53;4900904;29;20465;-76
2022/01/16 08:47:22;;;;;;;37.70;14.90;;;;;;;2.32;90.30;101013.84;4900775;29;20037;-76
2022/01/16 08:49:48;;;;;;;43.47;15.02;;;;;;;2.33;90.16;101012.03;4900606;29;20036;-76
2022/01/16 08:52:13;;;;;;;42.95;17.77;;;;;;;2.39;90.12;101024.75;4900565;29;20051;-77
2022/01/16 08:54:39;;;;;;;36.25;15.02;;;;;;;2.54;89.81;101011.91;4900752;29;20139;-77
2022/01/16 08:57:04;;;;;;;38.78;14.65;;;;;;;2.49;89.78;101014.16;4900729;29;20068;-77
2022/01/16 08:59:30;;;;;;;38.10;15.43;;;;;;;2.48;89.68;101025.78;4900446;29;20056;-77
2022/01/16 09:01:55;;;;;;;38.65;15.80;;;;;;;2.50;89.65;101035.28;4900395;29;20112;-77
2022/01/16 09:04:21;;;;;;;45.03;15.93;;;;;;;2.51;89.74;101030.81;4900750;29;20036;-76
2022/01/16 09:06:46;;;;;;;46.30;16.23;;;;;;;2.49;89.58;101024.78;4900109;29;20033;-77
2022/01/16 09:09:12;;;;;;;35.85;15.57;;;;;;;2.48;89.64;101031.09;4900405;29;20100;-76
2022/01/16 09:11:37;;;;;;;37.03;14.35;;;;;;;2.52;89.56;101019.16;4900589;29;20036;-77
2022/01/16 09:14:03;;;;;;;45.97;15.75;;;;;;;2.54;89.38;101034.00;4900242;29;20067;-76
2022/01/16 09:16:30;;;;;;;40.20;15.67;;;;;;;2.52;89.66;101043.94;4883999;29;20064;-77
2022/01/16 09:18:56;;;;;;;34.72;14.80;;;;;;;2.53;89.67;101042.13;4883345;29;20272;-77
2022/01/16 09:21:21;;;;;;;36.60;16.25;;;;;;;2.55;89.90;101048.16;4900224;29;20096;-77
2022/01/16 09:23:49;;;;;;;37.57;16.10;;;;;;;2.56;89.72;101045.38;4900168;29;20037;-77
2022/01/16 09:26:15;;;;;;;38.10;14.20;;;;;;;2.58;89.73;101042.56;4900003;29;20028;-77
2022/01/16 09:28:41;;;;;;;42.70;15.00;;;;;;;2.61;89.39;101042.28;4900316;29;20084;-77
2022/01/16 09:31:07;;;;;;;40.50;15.85;;;;;;;2.66;89.46;101056.03;4899801;29;20096;-77
2022/01/16 09:33:32;;;;;;;44.00;15.57;;;;;;;2.68;89.46;101054.09;4900072;29;20032;-78
2022/01/16 09:35:58;;;;;;;38.90;16.13;;;;;;;2.68;89.20;101065.56;4900240;29;20037;-77
2022/01/16 09:38:23;;;;;;;36.05;14.85;;;;;;;2.67;88.84;101061.22;4900151;29;20047;-77
2022/01/16 09:40:49;;;;;;;35.20;15.00;;;;;;;2.66;89.24;101056.88;4883765;29;20036;-77
2022/01/16 09:43:16;;;;;;;42.40;14.18;;;;;;;2.69;89.30;101061.06;4883354;29;20025;-77
2022/01/16 09:45:42;;;;;;;35.85;14.10;;;;;;;2.69;89.13;101066.38;4883043;29;20060;-77
2022/01/16 09:48:07;;;;;;;;;;;;;;;2.71;89.01;101069.75;4899902;29;20115;-77
2022/01/16 09:50:33;;;;;;;36.58;14.07;;;;;;;2.73;89.04;101067.78;4899656;29;19982;-77
2022/01/16 09:53:00;;;;;;;32.13;13.20;;;;;;;2.75;88.75;101065.84;4899774;29;20036;-76
2022/01/16 09:55:25;;;;;;;42.70;15.50;;;;;;;2.73;88.99;101057.97;4900046;29;20032;-77
2022/01/16 09:57:55;;;;;;;38.35;15.43;;;;;;;2.78;88.82;101068.22;4883192;29;20039;-77
2022/01/16 10:00:21;;;;;;;38.35;15.48;;;;;;;2.81;88.72;101067.94;4882507;29;20036;-77
2022/01/16 10:02:48;;;;;;;39.45;13.95;;;;;;;2.85;88.39;101068.53;4899159;29;20417;-77
2022/01/16 10:05:23;;;;;;;37.92;15.90;;;;;;;2.90;88.30;101068.91;4898885;29;20033;-76
2022/01/16 10:07:49;;;;;;;34.35;12.90;;;;;;;2.97;87.93;101067.38;4898666;29;20124;-76
2022/01/16 10:10:15;;;;;;;37.28;14.32;;;;;;;2.98;87.55;101075.25;4899336;29;20547;-77
2022/01/16 10:12:47;;;;;;;41.72;14.20;;;;;;;2.99;87.57;101068.94;4898458;29;20036;-75
2022/01/16 10:15:20;;;;;;;34.47;14.23;;;;;;;3.00;87.60;101075.94;4898477;29;20128;-76
2022/01/16 10:17:48;;;;;;;35.33;14.20;;;;;;;3.02;87.64;101076.66;4898713;29;20033;-77
2022/01/16 10:20:16;;;;;;;35.97;15.35;;;;;;;3.03;87.77;101074.81;4898379;29;20060;-76
2022/01/16 10:22:56;;;;;;;35.03;13.48;;;;;;;3.04;87.65;101071.19;4881514;29;20028;-76
2022/01/16 10:25:51;;;;;;;36.22;14.93;;;;;;;3.07;87.30;101069.06;4898286;29;20059;-76
2022/01/16 10:28:25;;;;;;;32.28;12.93;;;;;;;3.08;87.45;101062.75;4878151;29;20044;-76
2022/01/16 10:30:55;;;;;;;38.17;13.05;;;;;;;3.11;86.94;101067.81;4898547;29;20050;-76
2022/01/16 10:33:23;;;;;;;37.28;13.15;;;;;;;3.11;87.03;101067.81;4881803;29;20044;-76
2022/01/16 10:35:51;;;;;;;38.42;14.40;;;;;;;3.10;87.04;101066.13;4898131;29;20045;-76
2022/01/16 10:38:29;;;;;;;33.47;12.27;;;;;;;3.12;86.83;101064.16;4898679;29;20036;-76
2022/01/16 10:40:57;;;;;;;29.58;12.60;;;;;;;3.13;87.13;101065.00;4898315;29;20029;-76
2022/01/16 10:43:44;;;;;;;37.65;13.63;;;;;;;3.16;87.00;101079.84;4898105;29;20029;-77
2022/01/16 10:46:12;;;;;;;30.20;12.20;;;;;;;3.17;87.10;101069.06;4898246;29;20032;-76
2022/01/16 10:48:38;;;;;;;27.38;12.55;;;;;;;3.20;86.94;101063.47;4881149;29;20044;-76
2022/01/16 10:51:04;;;;;;;33.47;11.25;;;;;;;3.21;86.65;101078.47;4898220;29;20040;-75
2022/01/16 10:53:32;;;;;;;30.75;12.35;;;;;;;3.24;86.80;101070.16;4898280;29;20115;-76
2022/01/16 10:56:02;;;;;;;38.97;14.82;;;;;;;3.28;86.92;101078.72;4897558;29;20035;-76
2022/01/16 10:58:36;;;;;;;31.35;13.18;;;;;;;3.34;86.65;101072.84;4881594;29;20031;-75
2022/01/16 11:01:09;;;;;;;29.77;12.07;;;;;;;3.32;86.87;101088.94;4897856;29;20071;-76
2022/01/16 11:03:44;;;;;;;32.22;12.60;;;;;;;3.34;87.13;101094.97;4881380;29;20064;-76
2022/01/16 11:06:09;;;;;;;30.55;12.00;;;;;;;3.35;87.12;101101.16;4882012;29;20059;-76
2022/01/16 11:08:36;;;;;;;33.75;12.27;;;;;;;3.35;87.19;101103.81;4898396;29;20087;-77
2022/01/16 11:11:02;;;;;;;29.77;13.20;;;;;;;3.35;87.25;101107.31;4898116;29;20052;-76
2022/01/16 11:13:30;;;;;;;33.10;13.85;;;;;;;3.34;87.42;101105.63;4897798;29;20393;-77
2022/01/16 11:16:02;;;;;;;31.02;12.05;;;;;;;3.36;87.72;101113.50;4898311;29;20040;-76
2022/01/16 11:18:27;;;;;;;39.38;13.95;;;;;;;3.36;87.77;101113.50;4898048;29;20032;-77
2022/01/16 11:23:48;;;;;;;29.10;11.73;;;;;;;3.35;87.86;101109.16;4898250;29;20037;-76
2022/01/16 11:26:17;;;;;;;31.75;13.73;;;;;;;3.37;87.97;101109.84;4897857;29;20035;-76
2022/01/16 11:28:43;;;;;;;30.30;11.77;;;;;;;3.38;88.07;101100.88;4897819;29;20028;-76
2022/01/16 11:31:10;;;;;;;34.55;12.65;;;;;;;3.38;88.01;101101.72;4897620;29;20043;-76
2022/01/16 11:33:37;;;;;;;36.75;14.15;;;;;;;3.39;88.11;101102.56;4897962;29;20045;-76
2022/01/16 11:36:12;;;;;;;40.05;13.85;;;;;;;3.43;88.32;101111.91;4897586;29;20036;-75
2022/01/16 11:38:42;;;;;;;47.45;13.55;;;;;;;3.44;88.29;101103.78;4881390;29;20047;-76
2022/01/16 11:41:23;;;;;;;37.95;12.82;;;;;;;3.49;88.32;101104.22;4898190;29;20048;-76
2022/01/16 11:43:51;;;;;;;35.47;13.82;;;;;;;3.54;88.32;101105.63;4881268;29;20468;-76
2022/01/16 11:46:23;;;;;;;35.65;12.95;;;;;;;3.58;88.45;101097.19;4897986;29;20039;-77
2022/01/16 11:48:53;;;;;;;41.97;14.63;;;;;;;3.58;88.40;101104.34;4897969;29;20029;-77
2022/01/16 11:53:58;;;;;;;46.63;14.52;;;;;;;3.61;88.30;101099.56;4898068;29;20032;-75
2022/01/16 11:56:42;;;;;;;34.43;12.60;;;;;;;3.65;88.16;101098.28;4897891;29;20177;-76
2022/01/16 11:59:10;;;;;;;41.05;13.75;;;;;;;3.72;88.02;101093.25;4897306;29;20265;-76
2022/01/16 12:01:47;;;;;;;34.83;12.52;;;;;;;3.71;88.21;101091.56;4898991;29;20040;-77
2022/01/16 12:04:31;;;;;;;42.08;14.18;;;;;;;3.74;87.65;101096.59;4899029;29;20041;-78
2022/01/16 12:06:57;;;;;;;41.28;15.43;;;;;;;3.75;87.82;101099.13;4898286;29;20092;-77